Airport View

Enter AWOS ICAO identifier for current METAR.

ex. KFNL

KTIW 261953Z 21004KT 10SM BKN015 BKN029 08/05 A3055 RMK AO2 SLP347 T00830050

26 Feb 2020 20:07

Phone: 253-858-6507

Other Area AWOS: KTCM - KGRF - KSEA - KPWT

TAF KTCM 261300Z 2613/2719 22006KT 9999 OVC010 620402 QNH3044INS TEMPO 2613/2619 BKN005 BECMG 2707/2708 19004KT 9999 SCT020 BKN050 620609 QNH3048INS TX12/2623Z TN03/2713Z